Time;durP1;ratioP1;P1;durP2;ratioP2;P2;SDS_P1;SDS_P2;PMS_P1;PMS_P2;Temp;Humidity;BMP_temperature;BMP_pressure;BME280_temperature;BME280_humidity;BME280_pressure;Samples;Min_cycle;Max_cycle;Signal;HPM_P1;HPM_P2
2022/04/04 00:00:50;;;;;;;11.97;6.30;;;-0.50;99.90;;;;;;4125137;28;20292;-58
2022/04/04 00:02:51;;;;;;;14.50;6.30;;;-0.40;99.90;;;;;;4130787;28;20376;-59
2022/04/04 00:04:52;;;;;;;12.70;6.90;;;-0.30;99.90;;;;;;4140876;28;20322;-54
2022/04/04 00:06:54;;;;;;;12.33;6.53;;;-0.30;99.90;;;;;;4140788;28;20854;-57
2022/04/04 00:08:55;;;;;;;13.10;6.33;;;-0.30;99.90;;;;;;4140662;28;20309;-51
2022/04/04 00:10:56;;;;;;;9.23;6.40;;;-0.20;99.90;;;;;;4135406;28;20817;-59
2022/04/04 00:12:58;;;;;;;10.07;6.30;;;-0.20;99.90;;;;;;4140723;28;20283;-55
2022/04/04 00:14:59;;;;;;;10.37;5.90;;;-0.10;99.90;;;;;;4139853;28;20287;-58
2022/04/04 00:17:02;;;;;;;9.43;6.03;;;-0.10;99.90;;;;;;4139292;28;20699;-59
2022/04/04 00:19:05;;;;;;;9.53;5.83;;;-0.10;99.90;;;;;;4128132;28;20601;-55
2022/04/04 00:21:06;;;;;;;9.80;6.20;;;-0.10;99.90;;;;;;4125344;28;20292;-60
2022/04/04 00:23:12;;;;;;;10.47;5.90;;;-0.10;99.90;;;;;;4126214;28;20326;-54
2022/04/04 00:25:13;;;;;;;13.43;6.80;;;-0.10;99.90;;;;;;4124780;28;20764;-56
2022/04/04 00:27:14;;;;;;;12.17;6.73;;;0.00;99.90;;;;;;4124780;28;20264;-52
2022/04/04 00:29:15;;;;;;;9.50;5.80;;;0.00;99.90;;;;;;4125982;28;20276;-57
2022/04/04 00:31:18;;;;;;;10.17;6.60;;;0.00;99.90;;;;;;4125786;28;20280;-51
2022/04/04 00:33:19;;;;;;;13.43;7.20;;;0.00;99.90;;;;;;4125882;28;20326;-55
2022/04/04 00:35:20;;;;;;;11.43;6.60;;;0.00;99.90;;;;;;4125448;28;20955;-56
2022/04/04 00:37:21;;;;;;;11.97;7.20;;;0.10;99.90;;;;;;4125637;28;20827;-61
2022/04/04 00:39:22;;;;;;;12.77;6.67;;;0.10;99.90;;;;;;4132509;28;20276;-61
2022/04/04 00:41:24;;;;;;;11.70;5.90;;;0.10;99.90;;;;;;4140999;28;20671;-59
2022/04/04 00:43:25;;;;;;;13.30;7.10;;;0.10;99.90;;;;;;4140233;28;20334;-54
2022/04/04 00:45:26;;;;;;;11.33;6.27;;;0.00;99.90;;;;;;4139722;28;20310;-53
2022/04/04 00:47:27;;;;;;;11.00;6.30;;;0.10;99.90;;;;;;4134189;28;20619;-57
2022/04/04 00:49:28;;;;;;;13.53;8.10;;;0.10;99.90;;;;;;4126664;28;20326;-65
2022/04/04 00:51:30;;;;;;;13.63;7.07;;;0.10;99.90;;;;;;4124376;28;20338;-54
2022/04/04 00:53:31;;;;;;;13.07;7.47;;;0.20;99.90;;;;;;4124914;28;20803;-56
2022/04/04 00:55:33;;;;;;;13.13;7.13;;;0.20;99.90;;;;;;4124626;28;20276;-57
2022/04/04 00:57:36;;;;;;;12.13;6.90;;;0.30;99.90;;;;;;4125506;28;20268;-56
2022/04/04 00:59:38;;;;;;;13.63;7.53;;;0.20;99.90;;;;;;4125000;28;20817;-55
2022/04/04 01:01:40;;;;;;;11.30;6.93;;;0.30;99.90;;;;;;4124116;28;20351;-57
2022/04/04 01:03:41;;;;;;;13.07;7.77;;;0.30;99.90;;;;;;4125270;28;20256;-52
2022/04/04 01:05:44;;;;;;;14.23;7.03;;;0.20;99.90;;;;;;4133849;28;20263;-57
2022/04/04 01:07:45;;;;;;;13.40;6.20;;;0.20;99.90;;;;;;4134725;28;20280;-54
2022/04/04 01:09:47;;;;;;;13.93;6.60;;;0.20;99.90;;;;;;4124389;28;20284;-66
2022/04/04 01:12:09;;;;;;;15.20;7.43;;;0.20;99.90;;;;;;4140025;28;20271;-59
2022/04/04 01:14:10;;;;;;;11.83;6.37;;;0.20;99.90;;;;;;4124004;28;20264;-58
2022/04/04 01:16:11;;;;;;;9.90;6.67;;;0.20;99.90;;;;;;4125059;28;20288;-56
2022/04/04 01:18:12;;;;;;;11.83;7.43;;;0.30;99.90;;;;;;4123502;28;20268;-55
2022/04/04 01:20:14;;;;;;;13.60;7.33;;;0.30;99.90;;;;;;4125525;28;20312;-57
2022/04/04 01:22:17;;;;;;;11.40;6.90;;;0.30;99.90;;;;;;4124268;28;20264;-55
2022/04/04 01:24:18;;;;;;;13.20;7.77;;;0.40;99.90;;;;;;4124919;28;20346;-65
2022/04/04 01:26:20;;;;;;;11.30;6.80;;;0.40;99.90;;;;;;4137565;28;20314;-55
2022/04/04 01:28:21;;;;;;;12.53;7.30;;;0.40;99.90;;;;;;4140192;28;20298;-55
2022/04/04 01:30:24;;;;;;;12.63;7.13;;;0.40;99.90;;;;;;4124249;28;20598;-62
2022/04/04 01:32:25;;;;;;;11.97;7.00;;;0.40;99.90;;;;;;4124957;28;20315;-65
2022/04/04 01:34:26;;;;;;;12.13;6.57;;;0.40;99.90;;;;;;4125411;28;20275;-57
2022/04/04 01:36:27;;;;;;;12.57;6.70;;;0.50;99.90;;;;;;4138349;28;20675;-56
2022/04/04 01:38:29;;;;;;;11.23;6.77;;;0.50;99.90;;;;;;4140470;28;20333;-58
2022/04/04 01:40:30;;;;;;;9.93;6.33;;;0.50;99.90;;;;;;4126898;28;20660;-57
2022/04/04 01:42:31;;;;;;;13.80;6.70;;;0.60;99.90;;;;;;4118083;28;20268;-57
2022/04/04 01:44:33;;;;;;;11.33;6.40;;;0.60;99.90;;;;;;4123438;28;20276;-66
2022/04/04 01:46:34;;;;;;;8.30;5.70;;;0.60;99.90;;;;;;4128584;28;20271;-57
2022/04/04 01:48:36;;;;;;;10.00;6.10;;;0.60;99.90;;;;;;4130196;28;20279;-57
2022/04/04 01:50:38;;;;;;;9.80;5.53;;;0.60;99.90;;;;;;4125597;28;20342;-57
2022/04/04 01:52:39;;;;;;;12.50;7.03;;;0.70;99.90;;;;;;4123282;28;20311;-58
2022/04/04 01:54:41;;;;;;;11.50;5.50;;;0.60;99.90;;;;;;4125178;28;20283;-57
2022/04/04 01:56:43;;;;;;;9.10;5.70;;;0.60;99.90;;;;;;4123174;28;20303;-57
2022/04/04 01:58:45;;;;;;;8.73;5.67;;;0.70;99.90;;;;;;4127024;28;20279;-58
2022/04/04 02:00:46;;;;;;;8.83;5.40;;;0.70;99.90;;;;;;4139765;28;20717;-54
2022/04/04 02:02:47;;;;;;;9.17;5.83;;;0.70;99.90;;;;;;4140423;28;20740;-58
2022/04/04 02:04:49;;;;;;;9.30;5.47;;;0.60;99.90;;;;;;4138333;28;20337;-57
2022/04/04 02:06:50;;;;;;;6.53;5.00;;;0.60;99.90;;;;;;4124537;28;20335;-59
2022/04/04 02:08:51;;;;;;;10.33;6.43;;;0.70;99.90;;;;;;4123851;28;21059;-57
2022/04/04 02:10:52;;;;;;;10.47;5.47;;;0.60;99.90;;;;;;4137709;28;20272;-58
2022/04/04 02:12:53;;;;;;;9.70;5.93;;;0.60;99.90;;;;;;4136917;28;20759;-58
2022/04/04 02:14:54;;;;;;;11.33;5.47;;;0.60;99.90;;;;;;4139136;28;20358;-56
2022/04/04 02:16:56;;;;;;;11.03;5.80;;;0.60;99.90;;;;;;4138366;28;21138;-55
2022/04/04 02:18:57;;;;;;;12.17;5.97;;;0.60;99.90;;;;;;4136959;28;20331;-60
2022/04/04 02:20:58;;;;;;;10.00;5.90;;;0.70;99.90;;;;;;4139570;28;20295;-55
2022/04/04 02:23:00;;;;;;;9.77;5.80;;;0.60;99.90;;;;;;4137346;28;22683;-54
2022/04/04 02:25:01;;;;;;;13.73;6.00;;;0.60;99.90;;;;;;4134422;28;20288;-56
2022/04/04 02:27:03;;;;;;;10.67;6.30;;;0.60;99.90;;;;;;4123679;28;20330;-55
2022/04/04 02:29:04;;;;;;;11.60;6.00;;;0.60;99.90;;;;;;4123750;28;20280;-55
2022/04/04 02:31:05;;;;;;;10.97;6.53;;;0.60;99.90;;;;;;4123921;28;20323;-63
2022/04/04 02:33:07;;;;;;;13.13;7.53;;;0.60;99.90;;;;;;4124138;28;20346;-59
2022/04/04 02:35:09;;;;;;;12.93;7.47;;;0.60;99.90;;;;;;4124198;28;20271;-60
2022/04/04 02:37:10;;;;;;;12.30;7.83;;;0.60;99.90;;;;;;4123456;28;20377;-57
2022/04/04 02:39:11;;;;;;;15.37;6.93;;;0.60;99.90;;;;;;4126392;28;20586;-59
2022/04/04 02:41:12;;;;;;;13.03;7.03;;;0.60;99.90;;;;;;4126005;28;20338;-61
2022/04/04 02:43:14;;;;;;;16.20;7.30;;;0.50;99.90;;;;;;4126660;28;20358;-55
2022/04/04 02:45:16;;;;;;;14.53;8.13;;;0.50;99.90;;;;;;4141776;28;20283;-63
2022/04/04 02:47:17;;;;;;;12.97;6.93;;;0.50;99.90;;;;;;4141584;28;20769;-55
2022/04/04 02:49:18;;;;;;;13.97;7.07;;;0.50;99.90;;;;;;4142026;28;20310;-60
2022/04/04 02:51:19;;;;;;;12.37;6.97;;;0.50;99.90;;;;;;4141750;28;20341;-61
2022/04/04 02:53:21;;;;;;;14.17;8.10;;;0.50;99.90;;;;;;4142412;28;20298;-57
2022/04/04 02:57:42;;;;;;;16.45;9.48;;;0.50;99.90;;;;;;4126160;28;20326;-55
2022/04/04 02:59:44;;;;;;;16.70;8.93;;;0.50;99.90;;;;;;4127182;28;20038;-52
2022/04/04 03:01:48;;;;;;;16.80;8.87;;;0.40;99.90;;;;;;4126586;28;20396;-58
2022/04/04 03:03:49;;;;;;;17.43;9.07;;;0.40;99.90;;;;;;4142490;28;20267;-58
2022/04/04 03:05:51;;;;;;;14.93;8.30;;;0.50;99.90;;;;;;4141265;28;20291;-53
2022/04/04 03:07:53;;;;;;;15.87;8.73;;;0.40;99.90;;;;;;4126820;28;20301;-57
2022/04/04 03:09:54;;;;;;;14.13;8.13;;;0.50;99.90;;;;;;4130190;28;20279;-53
2022/04/04 03:11:55;;;;;;;12.17;7.90;;;0.50;99.90;;;;;;4141956;28;21130;-63
2022/04/04 03:13:56;;;;;;;17.50;8.53;;;0.50;99.90;;;;;;4142544;28;20272;-55
2022/04/04 03:15:58;;;;;;;17.23;8.90;;;0.50;99.90;;;;;;4140469;28;20667;-58
2022/04/04 03:17:59;;;;;;;16.13;9.00;;;0.60;99.90;;;;;;4142216;28;20751;-57
2022/04/04 03:20:00;;;;;;;17.87;9.00;;;0.60;99.90;;;;;;4127365;28;20264;-53
2022/04/04 03:22:01;;;;;;;16.03;8.97;;;0.60;99.90;;;;;;4126636;28;20358;-57
2022/04/04 03:24:02;;;;;;;18.13;8.70;;;0.60;99.90;;;;;;4126765;28;20764;-55
2022/04/04 03:26:04;;;;;;;19.30;9.43;;;0.60;99.90;;;;;;4126657;28;20752;-53
2022/04/04 03:28:05;;;;;;;19.87;9.57;;;0.50;99.90;;;;;;4125849;28;20284;-57
2022/04/04 03:30:12;;;;;;;18.97;10.40;;;0.50;99.90;;;;;;4127836;28;20276;-52
2022/04/04 03:32:13;;;;;;;18.47;9.67;;;0.40;99.90;;;;;;4141370;28;21263;-56
2022/04/04 03:34:14;;;;;;;15.77;8.80;;;0.40;99.90;;;;;;4142347;28;20361;-60
2022/04/04 03:36:15;;;;;;;17.53;9.23;;;0.40;99.90;;;;;;4141481;28;20679;-60
2022/04/04 03:38:17;;;;;;;17.03;9.00;;;0.40;99.90;;;;;;4140785;28;20287;-56
2022/04/04 03:40:19;;;;;;;17.50;9.13;;;0.40;99.90;;;;;;4138445;28;20768;-58
2022/04/04 03:42:20;;;;;;;16.33;9.33;;;0.40;99.90;;;;;;4156847;28;20317;-58
2022/04/04 03:44:22;;;;;;;16.87;9.57;;;0.40;99.90;;;;;;4125254;28;20342;-57
2022/04/04 03:46:23;;;;;;;16.20;9.63;;;0.40;99.90;;;;;;4125272;28;20339;-63
2022/04/04 03:48:24;;;;;;;18.67;9.23;;;0.40;99.90;;;;;;4126744;28;20284;-56
2022/04/04 03:50:26;;;;;;;18.20;9.57;;;0.40;99.90;;;;;;4124400;28;20276;-58
2022/04/04 03:52:28;;;;;;;23.90;10.20;;;0.40;99.90;;;;;;4124722;28;20764;-56
2022/04/04 03:54:30;;;;;;;22.30;10.30;;;0.30;99.90;;;;;;4124877;28;20346;-56
2022/04/04 03:56:31;;;;;;;19.57;10.43;;;0.30;99.90;;;;;;4136527;28;20276;-57
2022/04/04 03:58:33;;;;;;;24.87;10.83;;;0.30;99.90;;;;;;4140858;28;20862;-58
2022/04/04 04:00:35;;;;;;;18.50;9.97;;;0.30;99.90;;;;;;4141856;28;20283;-55
2022/04/04 04:02:37;;;;;;;18.00;9.57;;;0.30;99.90;;;;;;4141295;28;20322;-54
2022/04/04 04:04:38;;;;;;;18.57;10.33;;;0.30;99.90;;;;;;4141772;28;20263;-58
2022/04/04 04:06:40;;;;;;;19.67;10.87;;;0.30;99.90;;;;;;4131393;28;20314;-58
2022/04/04 04:08:44;;;;;;;23.83;9.97;;;0.20;99.90;;;;;;4125665;28;20335;-58
2022/04/04 04:10:45;;;;;;;18.43;10.13;;;0.20;99.90;;;;;;4124486;28;20756;-54
2022/04/04 04:12:46;;;;;;;27.17;10.03;;;0.30;99.90;;;;;;4125120;28;20350;-57
2022/04/04 04:14:51;;;;;;;19.50;10.53;;;0.40;99.90;;;;;;4125462;28;20268;-54
2022/04/04 04:16:52;;;;;;;23.90;10.57;;;0.40;99.90;;;;;;4124760;28;20268;-56
2022/04/04 04:18:53;;;;;;;23.77;9.83;;;0.50;99.90;;;;;;4125038;28;20346;-58
2022/04/04 04:20:54;;;;;;;19.63;8.70;;;0.50;99.90;;;;;;4124141;28;20290;-53
2022/04/04 04:23:04;;;;;;;13.67;8.57;;;0.40;99.90;;;;;;4125151;28;20338;-56
2022/04/04 04:25:07;;;;;;;29.70;9.23;;;0.40;99.90;;;;;;4124451;28;20315;-63
2022/04/04 04:27:08;;;;;;;16.27;8.50;;;0.50;99.90;;;;;;4121922;28;20105;-56
2022/04/04 04:29:09;;;;;;;16.83;7.77;;;0.50;99.90;;;;;;4123808;28;20350;-59
2022/04/04 04:31:10;;;;;;;16.83;8.03;;;0.40;99.90;;;;;;4124810;28;20323;-61
2022/04/04 04:33:12;;;;;;;14.47;7.97;;;0.40;99.90;;;;;;4124747;28;20276;-58
2022/04/04 04:35:13;;;;;;;11.57;6.40;;;0.40;99.90;;;;;;4113207;28;20284;-60
2022/04/04 04:37:16;;;;;;;11.13;6.60;;;0.50;99.90;;;;;;4123059;28;20264;-60
2022/04/04 04:39:18;;;;;;;17.87;7.77;;;0.40;99.90;;;;;;4128400;28;20836;-59
2022/04/04 04:41:19;;;;;;;10.77;6.77;;;0.40;99.90;;;;;;4111229;28;20622;-59
2022/04/04 04:43:20;;;;;;;9.70;6.33;;;0.40;99.90;;;;;;4126938;28;20359;-58
2022/04/04 04:45:21;;;;;;;10.00;6.30;;;0.40;99.90;;;;;;4133636;28;20283;-58
2022/04/04 04:47:23;;;;;;;9.57;6.13;;;0.40;99.90;;;;;;4134991;28;20330;-55
2022/04/04 04:49:26;;;;;;;12.70;6.93;;;0.40;99.90;;;;;;4124296;28;20331;-57
2022/04/04 04:51:27;;;;;;;28.83;8.60;;;0.40;99.90;;;;;;4130178;28;20276;-61
2022/04/04 04:53:28;;;;;;;20.97;10.37;;;0.50;99.90;;;;;;4124250;28;20786;-53
2022/04/04 04:55:30;;;;;;;20.43;11.40;;;0.50;99.90;;;;;;4123339;28;20264;-61
2022/04/04 04:57:32;;;;;;;26.60;12.60;;;0.50;99.90;;;;;;4124458;28;20338;-58
2022/04/04 04:59:33;;;;;;;26.27;12.90;;;0.40;99.90;;;;;;4123695;28;20672;-61
2022/04/04 05:01:35;;;;;;;28.90;13.30;;;0.40;99.90;;;;;;4125004;28;20292;-60
2022/04/04 05:03:36;;;;;;;35.30;14.67;;;0.40;99.90;;;;;;4123805;28;20842;-58
2022/04/04 05:05:38;;;;;;;30.00;13.70;;;0.40;99.90;;;;;;4124874;28;20319;-57
2022/04/04 05:07:39;;;;;;;27.53;13.40;;;0.40;99.90;;;;;;4123460;28;20275;-60
2022/04/04 05:09:40;;;;;;;24.80;12.90;;;0.40;99.90;;;;;;4124481;28;20268;-58
2022/04/04 05:11:41;;;;;;;25.87;12.07;;;0.40;99.90;;;;;;4123599;28;20310;-56
2022/04/04 05:13:43;;;;;;;25.53;13.27;;;0.50;99.90;;;;;;4124628;28;20268;-60
2022/04/04 05:15:44;;;;;;;23.27;13.10;;;0.50;99.90;;;;;;4123515;28;20276;-54
2022/04/04 05:17:45;;;;;;;29.63;14.07;;;0.50;99.90;;;;;;4124611;28;20338;-59
2022/04/04 05:19:48;;;;;;;27.90;13.20;;;0.40;99.90;;;;;;4123310;28;20342;-57
2022/04/04 05:21:51;;;;;;;32.83;13.30;;;0.50;99.90;;;;;;4123780;28;20826;-57
2022/04/04 05:23:52;;;;;;;28.23;13.83;;;0.50;99.90;;;;;;4123798;28;20323;-57
2022/04/04 05:25:53;;;;;;;24.90;13.63;;;0.50;99.90;;;;;;4134391;28;20754;-60
2022/04/04 05:27:56;;;;;;;26.63;14.40;;;0.60;99.90;;;;;;4138824;28;20275;-51
2022/04/04 05:29:57;;;;;;;29.77;14.87;;;0.60;99.90;;;;;;4139702;28;20313;-58
2022/04/04 05:31:58;;;;;;;25.63;14.13;;;0.60;99.90;;;;;;4122216;28;20787;-56
2022/04/04 05:34:01;;;;;;;24.07;14.13;;;0.60;99.90;;;;;;4119593;28;20268;-52
2022/04/04 05:36:04;;;;;;;23.30;12.97;;;0.60;99.90;;;;;;4124987;28;20275;-57
2022/04/04 05:38:06;;;;;;;24.13;14.67;;;0.70;99.90;;;;;;4122514;28;20322;-58
2022/04/04 05:40:08;;;;;;;21.87;12.63;;;0.70;99.90;;;;;;4124160;28;20311;-53
2022/04/04 05:42:09;;;;;;;24.23;13.00;;;0.70;99.90;;;;;;4139532;28;20298;-57
2022/04/04 05:44:10;;;;;;;23.53;13.13;;;0.70;99.90;;;;;;4139885;28;20389;-58
2022/04/04 05:46:12;;;;;;;25.33;14.90;;;0.80;99.90;;;;;;4139727;28;20252;-57
2022/04/04 05:48:13;;;;;;;23.73;13.77;;;0.80;99.90;;;;;;4139132;28;20337;-55
2022/04/04 05:50:14;;;;;;;30.90;14.60;;;0.80;99.90;;;;;;4138198;28;20271;-56
2022/04/04 05:52:16;;;;;;;26.57;13.53;;;0.90;99.90;;;;;;4140308;28;20275;-61
2022/04/04 05:54:18;;;;;;;28.53;14.63;;;0.90;99.90;;;;;;4140434;28;20291;-55
2022/04/04 05:56:21;;;;;;;29.17;14.67;;;0.90;99.90;;;;;;4140020;28;20314;-55
2022/04/04 05:58:22;;;;;;;28.87;13.80;;;0.90;99.90;;;;;;4140011;28;20374;-57
2022/04/04 06:00:24;;;;;;;29.73;13.13;;;1.00;99.90;;;;;;4127825;28;20284;-52
2022/04/04 06:02:27;;;;;;;22.23;11.80;;;1.10;99.90;;;;;;4122502;28;20815;-55
2022/04/04 06:04:28;;;;;;;22.27;11.70;;;1.30;99.90;;;;;;4119529;28;20322;-57
2022/04/04 06:06:29;;;;;;;26.67;14.37;;;1.40;99.90;;;;;;4137660;28;20295;-55
2022/04/04 06:08:30;;;;;;;25.53;12.27;;;1.40;99.90;;;;;;4136170;28;20291;-55
2022/04/04 06:10:32;;;;;;;21.87;11.63;;;1.50;99.90;;;;;;4140349;28;20353;-56
2022/04/04 06:12:38;;;;;;;28.03;10.27;;;1.50;99.90;;;;;;4138958;28;20283;-60
2022/04/04 06:14:39;;;;;;;17.17;9.90;;;1.60;99.90;;;;;;4139614;28;20365;-54
2022/04/04 06:16:40;;;;;;;15.80;9.43;;;1.50;99.90;;;;;;4138803;28;20322;-56
2022/04/04 06:18:42;;;;;;;16.57;8.87;;;1.60;99.90;;;;;;4140146;28;20263;-56
2022/04/04 06:20:44;;;;;;;16.13;8.37;;;1.70;99.90;;;;;;4138943;28;20283;-59
2022/04/04 06:22:45;;;;;;;21.80;8.83;;;1.70;99.90;;;;;;4137534;28;20335;-57
2022/04/04 06:24:46;;;;;;;17.97;8.40;;;1.70;99.90;;;;;;4138540;28;20358;-59
2022/04/04 06:26:47;;;;;;;13.47;7.70;;;1.70;99.90;;;;;;4139966;28;20267;-58
2022/04/04 06:28:48;;;;;;;12.53;7.60;;;1.70;99.90;;;;;;4139751;28;20287;-57
2022/04/04 06:30:49;;;;;;;14.63;8.10;;;1.80;99.90;;;;;;4134121;28;20276;-54
2022/04/04 06:32:51;;;;;;;13.00;6.43;;;1.70;99.90;;;;;;4123963;28;20346;-52
2022/04/04 06:34:52;;;;;;;13.90;6.87;;;1.60;99.90;;;;;;4122912;28;20286;-61
2022/04/04 06:36:53;;;;;;;16.73;7.10;;;1.60;99.90;;;;;;4123889;28;20279;-63
2022/04/04 06:38:54;;;;;;;15.77;6.77;;;1.60;99.90;;;;;;4123303;28;20767;-54
2022/04/04 06:40:56;;;;;;;15.97;7.10;;;1.60;99.90;;;;;;4123566;28;20283;-62
2022/04/04 06:42:58;;;;;;;13.00;6.60;;;1.60;99.90;;;;;;4128337;28;20702;-58
2022/04/04 06:45:00;;;;;;;11.73;7.40;;;1.70;99.90;;;;;;4119902;28;20552;-57
2022/04/04 06:47:02;;;;;;;15.13;7.20;;;1.70;99.90;;;;;;4123886;28;20349;-56
2022/04/04 06:49:04;;;;;;;16.30;7.87;;;1.70;99.90;;;;;;4123411;28;20413;-61
2022/04/04 06:51:06;;;;;;;18.43;7.80;;;1.70;99.90;;;;;;4122475;28;20342;-59
2022/04/04 06:53:07;;;;;;;14.77;8.23;;;1.80;99.90;;;;;;4123565;28;20280;-64
2022/04/04 06:55:11;;;;;;;15.73;7.83;;;1.70;99.90;;;;;;4122342;28;20343;-57
2022/04/04 06:57:12;;;;;;;11.60;7.73;;;1.70;99.90;;;;;;4122739;28;20276;-57
2022/04/04 06:59:14;;;;;;;10.90;6.60;;;1.70;99.90;;;;;;4117775;28;20318;-55
2022/04/04 07:01:15;;;;;;;13.37;8.03;;;1.80;99.90;;;;;;4122527;28;20672;-56
2022/04/04 07:03:17;;;;;;;25.03;8.03;;;1.80;99.90;;;;;;4123393;28;20292;-56
2022/04/04 07:05:18;;;;;;;12.63;7.30;;;1.80;99.90;;;;;;4122686;28;20338;-55
2022/04/04 07:07:21;;;;;;;10.33;6.27;;;1.80;99.90;;;;;;4122564;28;20826;-62
2022/04/04 07:09:23;;;;;;;14.93;7.07;;;1.80;99.90;;;;;;4135138;28;20290;-59
2022/04/04 07:11:24;;;;;;;13.87;6.93;;;1.80;99.90;;;;;;4133691;28;20280;-58
2022/04/04 07:13:25;;;;;;;14.10;7.03;;;1.80;99.90;;;;;;4127873;28;20314;-60
2022/04/04 07:15:27;;;;;;;11.40;6.87;;;1.70;99.90;;;;;;4128544;28;20276;-66
2022/04/04 07:17:28;;;;;;;15.33;8.27;;;1.80;99.90;;;;;;4121923;28;20334;-58
2022/04/04 07:19:33;;;;;;;13.47;7.03;;;1.80;99.90;;;;;;4123595;28;20268;-56
2022/04/04 07:21:34;;;;;;;12.20;7.10;;;1.80;99.90;;;;;;4121907;28;20272;-58
2022/04/04 07:23:35;;;;;;;14.23;6.97;;;1.70;99.90;;;;;;4123294;28;22603;-66
2022/04/04 07:25:37;;;;;;;16.87;7.80;;;1.80;99.90;;;;;;4125571;28;20342;-69
2022/04/04 07:27:42;;;;;;;14.67;7.30;;;1.80;99.90;;;;;;4138422;28;20747;-57
2022/04/04 07:29:43;;;;;;;17.00;7.93;;;1.90;99.90;;;;;;4140961;28;20283;-53
2022/04/04 07:31:44;;;;;;;13.50;7.77;;;2.00;99.90;;;;;;4125275;28;20822;-60
2022/04/04 07:33:45;;;;;;;11.60;7.07;;;2.20;99.90;;;;;;4124066;28;20268;-57
2022/04/04 07:35:46;;;;;;;10.67;7.00;;;2.20;99.90;;;;;;4124874;28;20709;-58
2022/04/04 07:37:49;;;;;;;12.57;6.47;;;2.20;99.90;;;;;;4125051;28;20327;-64
2022/04/04 07:39:50;;;;;;;14.27;6.30;;;2.30;99.90;;;;;;4124366;28;20334;-58
2022/04/04 07:41:51;;;;;;;9.53;5.87;;;2.30;99.90;;;;;;4125021;28;21016;-57
2022/04/04 07:43:53;;;;;;;10.20;6.00;;;2.40;99.90;;;;;;4127404;28;20287;-56
2022/04/04 07:45:54;;;;;;;12.00;6.73;;;2.40;99.90;;;;;;4141689;28;20294;-54
2022/04/04 07:47:55;;;;;;;9.93;6.07;;;2.40;99.90;;;;;;4140455;28;20691;-57
2022/04/04 07:49:56;;;;;;;10.83;6.13;;;2.60;99.90;;;;;;4140989;28;20345;-58
2022/04/04 07:51:57;;;;;;;11.67;6.00;;;2.60;99.90;;;;;;4129958;28;20333;-58
2022/04/04 07:53:58;;;;;;;12.53;6.77;;;2.70;99.90;;;;;;4126054;28;20602;-62
2022/04/04 07:56:00;;;;;;;9.83;6.50;;;2.70;99.90;;;;;;4132758;28;20373;-62
2022/04/04 07:58:02;;;;;;;12.37;6.83;;;2.70;99.90;;;;;;4141915;28;20275;-54
2022/04/04 08:00:04;;;;;;;12.90;7.27;;;2.70;99.90;;;;;;4140650;28;20378;-59
2022/04/04 08:02:06;;;;;;;11.73;6.50;;;2.70;99.90;;;;;;4140368;28;20304;-58
2022/04/04 08:04:07;;;;;;;10.67;7.03;;;2.70;99.90;;;;;;4141697;28;20295;-56
2022/04/04 08:06:08;;;;;;;17.87;7.63;;;2.60;99.90;;;;;;4132042;28;20283;-62
2022/04/04 08:08:09;;;;;;;11.73;6.63;;;2.60;99.90;;;;;;4130329;28;20264;-59
2022/04/04 08:10:11;;;;;;;11.80;6.70;;;2.70;99.90;;;;;;4124478;28;20276;-64
2022/04/04 08:12:12;;;;;;;10.53;6.80;;;2.80;99.90;;;;;;4124515;28;20307;-57
2022/04/04 08:14:13;;;;;;;11.50;6.60;;;2.80;99.90;;;;;;4124858;28;20326;-63
2022/04/04 08:16:15;;;;;;;10.23;6.80;;;2.80;99.90;;;;;;4128024;28;20744;-59
2022/04/04 08:18:16;;;;;;;10.93;6.67;;;2.90;99.90;;;;;;4139926;28;21204;-67
2022/04/04 08:20:18;;;;;;;13.90;6.63;;;3.00;99.90;;;;;;4141091;28;20342;-57
2022/04/04 08:22:20;;;;;;;14.53;7.23;;;3.00;99.90;;;;;;4124054;28;20357;-67
2022/04/04 08:24:22;;;;;;;11.03;7.03;;;3.10;99.90;;;;;;4125289;28;20798;-54
2022/04/04 08:26:23;;;;;;;11.20;6.47;;;3.00;99.90;;;;;;4125097;28;20361;-63
2022/04/04 08:28:27;;;;;;;14.10;6.77;;;3.00;99.90;;;;;;4124932;28;20268;-58
2022/04/04 08:30:29;;;;;;;13.07;6.97;;;3.00;99.90;;;;;;4124537;28;20275;-52
2022/04/04 08:32:30;;;;;;;16.87;8.33;;;3.10;99.90;;;;;;4125241;28;20390;-55
2022/04/04 08:34:32;;;;;;;14.60;9.73;;;3.20;99.90;;;;;;4124105;28;20330;-58
2022/04/04 08:36:33;;;;;;;12.20;6.30;;;3.30;99.90;;;;;;4123024;28;20396;-57
2022/04/04 08:38:37;;;;;;;11.60;7.57;;;3.30;99.90;;;;;;4128755;28;20264;-60
2022/04/04 08:40:41;;;;;;;11.87;6.80;;;3.30;99.90;;;;;;4123700;28;20807;-60
2022/04/04 08:42:42;;;;;;;9.37;6.13;;;3.30;99.90;;;;;;4124259;28;20365;-55
2022/04/04 08:44:45;;;;;;;10.53;6.47;;;3.30;99.90;;;;;;4123819;28;20622;-62
2022/04/04 08:46:47;;;;;;;15.40;7.27;;;3.30;99.90;;;;;;4124905;28;20733;-65
2022/04/04 08:48:48;;;;;;;14.70;7.40;;;3.30;99.90;;;;;;4123710;28;20366;-57
2022/04/04 08:50:50;;;;;;;11.27;7.03;;;3.40;99.90;;;;;;4124937;28;20272;-59
2022/04/04 08:52:51;;;;;;;10.17;6.73;;;3.50;99.90;;;;;;4124276;28;20276;-57
2022/04/04 08:54:52;;;;;;;13.30;6.47;;;3.60;99.90;;;;;;4125453;28;20280;-62
2022/04/04 08:56:53;;;;;;;12.30;6.80;;;3.70;99.90;;;;;;4123608;28;20709;-60
2022/04/04 08:58:55;;;;;;;10.50;7.07;;;3.70;99.90;;;;;;4140572;28;20361;-57
2022/04/04 09:00:57;;;;;;;10.37;6.80;;;3.70;99.90;;;;;;4138231;28;20302;-61
2022/04/04 09:03:02;;;;;;;10.43;6.50;;;3.70;99.90;;;;;;4124342;28;20788;-63
2022/04/04 09:05:05;;;;;;;9.00;6.97;;;3.70;99.90;;;;;;4125923;28;20291;-57
2022/04/04 09:07:11;;;;;;;14.53;7.30;;;3.80;99.90;;;;;;4125006;28;20276;-60
2022/04/04 09:09:18;;;;;;;17.03;6.87;;;3.90;99.90;;;;;;4122012;28;20425;-58
2022/04/04 09:11:19;;;;;;;12.23;7.03;;;4.00;99.90;;;;;;4136164;28;20322;-58
2022/04/04 09:13:22;;;;;;;11.97;6.93;;;4.00;99.90;;;;;;4139772;28;20743;-57
2022/04/04 09:15:23;;;;;;;13.93;7.07;;;4.20;99.90;;;;;;4140143;28;20275;-59
2022/04/04 09:17:30;;;;;;;13.30;6.40;;;4.30;99.90;;;;;;4140074;28;20318;-56
2022/04/04 09:19:31;;;;;;;11.73;7.27;;;4.30;99.90;;;;;;4140157;28;20295;-56
2022/04/04 09:21:33;;;;;;;8.90;5.77;;;4.30;99.90;;;;;;4140600;28;20841;-54
2022/04/04 09:23:48;;;;;;;11.67;6.10;;;4.30;99.90;;;;;;4140148;28;20295;-57
2022/04/04 09:25:49;;;;;;;12.00;6.33;;;4.20;99.90;;;;;;4140435;28;20338;-61
2022/04/04 09:27:50;;;;;;;12.33;6.90;;;4.30;99.90;;;;;;4139435;28;20298;-58
2022/04/04 09:30:03;;;;;;;13.10;7.93;;;4.30;99.90;;;;;;4140772;28;20279;-59
2022/04/04 09:32:15;;;;;;;10.33;5.97;;;4.50;99.90;;;;;;4139510;28;20671;-58
2022/04/04 09:34:16;;;;;;;14.03;6.53;;;4.60;99.90;;;;;;4141054;28;20279;-59
2022/04/04 09:36:18;;;;;;;11.73;6.63;;;4.70;99.90;;;;;;4124342;28;20273;-58
2022/04/04 09:38:20;;;;;;;13.83;7.23;;;4.80;99.90;;;;;;4123180;28;20260;-58
2022/04/04 09:40:24;;;;;;;8.70;6.17;;;4.90;99.90;;;;;;4122720;28;20411;-59
2022/04/04 09:42:28;;;;;;;9.60;6.00;;;4.80;99.90;;;;;;4122950;28;20370;-59
2022/04/04 09:44:29;;;;;;;9.33;6.73;;;4.70;99.90;;;;;;4122570;28;20283;-60
2022/04/04 09:46:36;;;;;;;9.87;6.37;;;4.60;99.90;;;;;;4124628;28;20284;-58
2022/04/04 09:48:38;;;;;;;8.70;6.10;;;4.60;99.90;;;;;;4121748;28;20271;-57
2022/04/04 09:50:46;;;;;;;10.60;6.60;;;4.70;99.90;;;;;;4123911;28;20283;-58
2022/04/04 09:52:57;;;;;;;10.33;6.37;;;4.90;99.90;;;;;;4122044;28;20343;-59
2022/04/04 09:54:58;;;;;;;10.10;6.22;;;5.20;99.90;;;;;;4123438;28;20684;-55
2022/04/04 09:57:17;;;;;;;10.20;6.97;;;5.10;99.90;;;;;;4122571;28;20530;-57
2022/04/04 09:59:18;;;;;;;9.73;6.27;;;5.10;99.90;;;;;;4138812;28;20267;-58
2022/04/04 10:01:19;;;;;;;11.63;6.37;;;5.10;99.90;;;;;;4123038;28;20322;-58
2022/04/04 10:03:22;;;;;;;14.10;7.33;;;5.20;99.90;;;;;;4124000;28;20987;-57
2022/04/04 10:05:26;;;;;;;11.73;6.40;;;5.00;99.90;;;;;;4122941;28;20303;-62
2022/04/04 10:07:28;;;;;;;8.87;5.87;;;4.90;99.90;;;;;;4123424;28;20256;-59
2022/04/04 10:09:29;;;;;;;10.03;6.20;;;4.80;99.90;;;;;;4122460;28;20776;-57
2022/04/04 10:11:30;;;;;;;12.33;6.40;;;4.80;99.90;;;;;;4122586;28;20272;-57
2022/04/04 10:13:32;;;;;;;10.73;6.00;;;4.80;99.90;;;;;;4123398;28;20338;-62
2022/04/04 10:15:36;;;;;;;9.47;6.47;;;4.60;99.90;;;;;;4122880;28;20675;-60
2022/04/04 10:17:38;;;;;;;12.67;6.83;;;4.40;99.90;;;;;;4123134;28;20318;-59
2022/04/04 10:19:41;;;;;;;9.67;6.03;;;4.30;99.90;;;;;;4122722;28;20264;-58
2022/04/04 10:21:42;;;;;;;10.53;5.43;;;4.10;99.90;;;;;;4123615;28;20260;-58
2022/04/04 10:23:44;;;;;;;23.43;7.80;;;4.00;99.90;;;;;;4132465;28;20870;-55
2022/04/04 10:25:49;;;;;;;11.33;7.07;;;4.00;99.90;;;;;;4121614;28;20342;-63
2022/04/04 10:27:52;;;;;;;13.03;6.60;;;4.00;99.90;;;;;;4121579;28;20363;-54
2022/04/04 10:30:07;;;;;;;11.73;5.53;;;4.00;99.90;;;;;;4121328;28;20276;-55
2022/04/04 10:32:23;;;;;;;11.93;5.83;;;4.00;99.90;;;;;;4120812;28;20276;-52
2022/04/04 10:34:25;;;;;;;13.10;6.20;;;4.10;99.90;;;;;;4123425;28;20354;-57
2022/04/04 10:36:27;;;;;;;10.30;6.63;;;3.90;99.90;;;;;;4122119;28;20272;-59